Portada
METAR-TAF:

METAR-TAF

Aeropuertos :

Aeropuerto de Vigo

Vigo, España

latitud: 42-13N, longitud: 008-38W, altitud: 264 m

Observación

El informe se hizo hace 24 minutos, a las 02:00 UTC
Viento 9 kt del norte
Temperatura 15°C
Humedad 77%
Presión 1019 hPa
Visibilidad 10 km o más
sin nubes por debajo de 1500 m y sin presencia de cumulonimbus.

METAR: LEVX 310200Z 01009KT CAVOK 15/11 Q1019 NOSIG

Hora: 04:24 (02:24 UTC)

Pronóstico

El informe se hizo hace 3 horas y 24 minutos, a las 23:00 UTC
Pronóstico válido del 31 a las 00 UTC al 31 a las 24 UTC
Viento 9 kt del norte-noroeste
Visibilidad 10 km o más
Nubes dispersas a una altura de 2000 ft
Nubes dispersas a una altura de 3500 ft

TAF: LEVX 302300Z 3100/3124 34009KT 9999 SCT020 SCT035 TX20/3113Z TN12/3106Z

Observaciones y pronósticos meteorológicos de más de 4000 aeropuertos (mensajes METAR y TAF).

Los puntos amarillos y rojos representan las estaciones disponibles.

Ponga el ratón en el punto deseado para ver el nombre de la estación.

Haga clic para ver las observaciones y los pronósticos meteorológicos.

Para cambiar el mapa : haga clic en los botones verdes con una cruz de color negro para hacer un zoom, en el botón verde con un guión para alejar o en las flechas verdes para mapas adyacentes.


METAR-TAF: